createdAt,value
2023-04-10T00:00:40.670Z,8.383
2023-04-10T00:01:42.691Z,8.393
2023-04-10T00:02:39.682Z,8.396
2023-04-10T00:03:39.679Z,8.369
2023-04-10T00:04:39.460Z,8.321
2023-04-10T00:05:38.864Z,8.313
2023-04-10T00:06:38.707Z,8.314
2023-04-10T00:07:38.624Z,8.313
2023-04-10T00:08:38.534Z,8.319
2023-04-10T00:09:38.789Z,8.328
2023-04-10T00:10:39.240Z,8.346
2023-04-10T00:11:38.743Z,8.329
2023-04-10T00:12:38.634Z,8.345
2023-04-10T00:13:38.796Z,8.369
2023-04-10T00:14:39.156Z,8.378
2023-04-10T00:15:38.013Z,8.392
2023-04-10T00:16:38.429Z,8.378
2023-04-10T00:17:38.412Z,8.407
2023-04-10T00:18:38.532Z,8.408
2023-04-10T00:19:39.370Z,8.394
2023-04-10T00:20:38.685Z,8.380
2023-04-10T00:21:43.906Z,8.376
2023-04-10T00:22:38.961Z,8.371
2023-04-10T00:23:38.810Z,8.380
2023-04-10T00:24:39.280Z,8.401
2023-04-10T00:25:38.970Z,8.407
2023-04-10T00:26:38.746Z,8.425
2023-04-10T00:27:39.114Z,8.406
2023-04-10T00:28:38.230Z,8.405
2023-04-10T00:29:38.348Z,8.395
2023-04-10T00:30:38.154Z,8.367
2023-04-10T00:31:52.314Z,8.345
2023-04-10T00:32:39.353Z,8.344
2023-04-10T00:33:38.879Z,8.357
2023-04-10T00:34:39.337Z,8.368
2023-04-10T00:35:38.076Z,8.376
2023-04-10T00:36:38.163Z,8.348
2023-04-10T00:37:37.965Z,8.352
2023-04-10T00:38:38.902Z,8.364
2023-04-10T00:39:39.340Z,8.381
2023-04-10T00:40:38.727Z,8.395
2023-04-10T00:41:38.482Z,8.376
2023-04-10T00:42:38.357Z,8.356
2023-04-10T00:43:38.566Z,8.371
2023-04-10T00:44:39.403Z,8.380
2023-04-10T00:45:38.899Z,8.383
2023-04-10T00:46:39.174Z,8.375
2023-04-10T00:47:38.403Z,8.386
2023-04-10T00:48:38.322Z,8.395
2023-04-10T00:49:38.856Z,8.351
2023-04-10T00:50:38.738Z,8.369
2023-04-10T00:51:39.148Z,8.353
2023-04-10T00:52:37.745Z,8.333
2023-04-10T00:53:38.450Z,8.353
2023-04-10T00:54:38.204Z,8.385
2023-04-10T00:55:38.150Z,8.375
2023-04-10T00:56:37.870Z,8.361
2023-04-10T00:57:38.254Z,8.381
2023-04-10T00:58:38.457Z,8.388
2023-04-10T00:59:39.266Z,8.348
2023-04-10T01:00:40.390Z,8.348
2023-04-10T01:01:38.644Z,8.328
2023-04-10T01:02:39.252Z,8.333
2023-04-10T01:03:38.978Z,8.345
2023-04-10T01:04:39.295Z,8.350
2023-04-10T01:05:38.609Z,8.359
2023-04-10T01:06:39.073Z,8.366
2023-04-10T01:07:38.145Z,8.366
2023-04-10T01:08:38.413Z,8.356
2023-04-10T01:09:38.804Z,8.361
2023-04-10T01:10:38.940Z,8.345
2023-04-10T01:11:39.644Z,8.316
2023-04-10T01:12:39.929Z,8.310
2023-04-10T01:13:39.092Z,8.310
2023-04-10T01:14:38.641Z,8.329
2023-04-10T01:15:39.188Z,8.340
2023-04-10T01:16:38.032Z,8.326
2023-04-10T01:17:38.360Z,8.300
2023-04-10T01:18:37.779Z,8.293
2023-04-10T01:19:38.722Z,8.273
2023-04-10T01:20:39.125Z,8.234
2023-04-10T01:21:38.461Z,8.218
2023-04-10T01:22:38.531Z,8.210
2023-04-10T01:23:37.995Z,8.210
2023-04-10T01:24:38.349Z,8.188
2023-04-10T01:25:38.254Z,8.193
2023-04-10T01:26:39.092Z,8.191
2023-04-10T01:27:38.179Z,8.163
2023-04-10T01:28:39.142Z,8.148
2023-04-10T01:29:38.518Z,8.173
2023-04-10T01:30:38.719Z,8.154
2023-04-10T01:31:39.057Z,8.149
2023-04-10T01:32:38.537Z,8.158
2023-04-10T01:33:38.311Z,8.163
2023-04-10T01:34:38.707Z,8.149
2023-04-10T01:35:39.296Z,8.128
2023-04-10T01:36:38.549Z,8.106
2023-04-10T01:37:37.960Z,8.100
2023-04-10T01:38:38.950Z,8.109
2023-04-10T01:39:38.997Z,8.126
2023-04-10T01:40:39.748Z,8.131
2023-04-10T01:41:39.244Z,8.149
2023-04-10T01:42:38.382Z,8.153
2023-04-10T01:43:38.759Z,8.166
2023-04-10T01:44:39.154Z,8.140
2023-04-10T01:45:38.687Z,8.126
2023-04-10T01:46:38.852Z,8.109
2023-04-10T01:47:39.312Z,8.116
2023-04-10T01:48:39.103Z,8.127
2023-04-10T01:49:38.563Z,8.116
2023-04-10T01:50:39.243Z,8.125
2023-04-10T01:51:38.548Z,8.130
2023-04-10T01:52:38.436Z,8.115
2023-04-10T01:53:38.669Z,8.116
2023-04-10T01:54:38.296Z,8.105
2023-04-10T01:55:38.410Z,8.086
2023-04-10T01:56:38.272Z,8.084
2023-04-10T01:57:39.290Z,8.060
2023-04-10T01:58:38.924Z,8.071
2023-04-10T01:59:39.544Z,8.057
2023-04-10T02:00:40.016Z,8.044
2023-04-10T02:01:45.646Z,8.041
2023-04-10T02:02:39.565Z,8.027
2023-04-10T02:03:39.699Z,8.024
2023-04-10T02:04:39.543Z,7.996
2023-04-10T02:05:39.027Z,8.005
2023-04-10T02:06:38.498Z,7.989
2023-04-10T02:07:37.862Z,7.981
2023-04-10T02:08:39.394Z,7.974
2023-04-10T02:09:38.753Z,7.966
2023-04-10T02:10:39.224Z,7.963
2023-04-10T02:11:38.606Z,7.954
2023-04-10T02:12:39.529Z,7.971
2023-04-10T02:13:38.806Z,7.978
2023-04-10T02:14:39.432Z,7.976
2023-04-10T02:15:38.938Z,7.978
2023-04-10T02:16:39.301Z,7.954
2023-04-10T02:17:39.309Z,7.951
2023-04-10T02:18:38.607Z,7.949
2023-04-10T02:19:38.487Z,7.946
2023-04-10T02:20:38.409Z,7.943
2023-04-10T02:21:38.283Z,7.940
2023-04-10T02:22:38.450Z,7.948
2023-04-10T02:23:38.999Z,7.940
2023-04-10T02:24:38.824Z,7.936
2023-04-10T02:25:38.747Z,7.938
2023-04-10T02:26:38.983Z,7.931
2023-04-10T02:27:38.650Z,7.914
2023-04-10T02:28:38.244Z,7.918
2023-04-10T02:29:38.984Z,7.900
2023-04-10T02:30:39.373Z,7.900
2023-04-10T02:31:38.749Z,7.911
2023-04-10T02:32:39.183Z,7.883
2023-04-10T02:33:38.556Z,7.896
2023-04-10T02:34:39.040Z,7.878
2023-04-10T02:35:37.884Z,7.888
2023-04-10T02:36:38.725Z,7.876
2023-04-10T02:37:38.916Z,7.878
2023-04-10T02:38:39.602Z,7.894
2023-04-10T02:39:39.260Z,7.893
2023-04-10T02:40:39.533Z,7.876
2023-04-10T02:41:38.960Z,7.889
2023-04-10T02:42:39.017Z,7.881
2023-04-10T02:43:37.929Z,7.881
2023-04-10T02:44:39.235Z,7.885
2023-04-10T02:45:38.710Z,7.861
2023-04-10T02:46:38.211Z,7.848
2023-04-10T02:47:38.248Z,7.853
2023-04-10T02:48:38.075Z,7.855
2023-04-10T02:49:38.845Z,7.858
2023-04-10T02:50:39.628Z,7.849
2023-04-10T02:51:39.362Z,7.835
2023-04-10T02:52:38.908Z,7.840
2023-04-10T02:53:39.130Z,7.803
2023-04-10T02:54:39.091Z,7.789
2023-04-10T02:55:38.804Z,7.768
2023-04-10T02:56:38.746Z,7.753
2023-04-10T02:57:38.120Z,7.753
2023-04-10T02:58:38.282Z,7.741
2023-04-10T02:59:38.209Z,7.733
2023-04-10T03:00:40.276Z,7.701
2023-04-10T03:01:39.841Z,7.659
2023-04-10T03:02:40.090Z,7.653
2023-04-10T03:03:39.133Z,7.631
2023-04-10T03:04:39.101Z,7.630
2023-04-10T03:05:37.876Z,7.618
2023-04-10T03:06:38.898Z,7.614
2023-04-10T03:07:38.760Z,7.605
2023-04-10T03:08:38.333Z,7.614
2023-04-10T03:09:38.019Z,7.585
2023-04-10T03:10:38.156Z,7.573
2023-04-10T03:11:38.526Z,7.547
2023-04-10T03:12:38.577Z,7.523
2023-04-10T03:13:38.431Z,7.510
2023-04-10T03:14:38.064Z,7.5
2023-04-10T03:15:38.233Z,7.468
2023-04-10T03:16:38.404Z,7.425
2023-04-10T03:17:38.603Z,7.393
2023-04-10T03:18:39.199Z,7.361
2023-04-10T03:19:38.781Z,7.336
2023-04-10T03:20:39.417Z,7.331
2023-04-10T03:21:38.515Z,7.300
2023-04-10T03:22:38.364Z,7.269
2023-04-10T03:23:38.394Z,7.238
2023-04-10T03:24:38.101Z,7.210
2023-04-10T03:25:38.505Z,7.199
2023-04-10T03:26:38.469Z,7.165
2023-04-10T03:27:38.746Z,7.147
2023-04-10T03:28:38.940Z,7.130
2023-04-10T03:29:39.248Z,7.096
2023-04-10T03:31:01.289Z,7.058
2023-04-10T03:31:38.550Z,7.030
2023-04-10T03:32:38.581Z,7.002
2023-04-10T03:33:38.827Z,6.978
2023-04-10T03:35:10.593Z,6.988
2023-04-10T03:35:42.262Z,6.978
2023-04-10T03:36:52.602Z,6.968
2023-04-10T03:37:38.358Z,6.969
2023-04-10T03:38:52.761Z,6.981
2023-04-10T03:39:38.974Z,6.967
2023-04-10T03:40:38.370Z,6.962
2023-04-10T03:41:40.498Z,6.978
2023-04-10T03:42:38.995Z,6.983
2023-04-10T03:43:37.870Z,6.965
2023-04-10T03:44:38.616Z,6.929
2023-04-10T03:45:38.994Z,6.914
2023-04-10T03:46:38.258Z,6.891
2023-04-10T03:47:38.283Z,6.857
2023-04-10T03:48:38.196Z,6.846
2023-04-10T03:49:38.733Z,6.828
2023-04-10T03:50:38.900Z,6.806
2023-04-10T03:51:38.089Z,6.795
2023-04-10T03:52:37.955Z,6.769
2023-04-10T03:53:39.025Z,6.778
2023-04-10T03:54:37.549Z,6.780
2023-04-10T03:55:38.914Z,6.781
2023-04-10T03:56:38.595Z,6.776
2023-04-10T03:57:38.457Z,6.764
2023-04-10T03:58:37.879Z,6.763
2023-04-10T03:59:51.929Z,6.758
2023-04-10T04:00:40.151Z,6.768
2023-04-10T04:01:39.193Z,6.816
2023-04-10T04:02:39.093Z,6.829
2023-04-10T04:03:38.950Z,6.826
2023-04-10T04:04:38.214Z,6.868
2023-04-10T04:05:38.424Z,6.891
2023-04-10T04:06:38.711Z,6.911
2023-04-10T04:07:38.616Z,6.916
2023-04-10T04:08:38.896Z,6.933
2023-04-10T04:09:39.312Z,6.946
2023-04-10T04:10:38.993Z,6.976
2023-04-10T04:11:38.173Z,6.968
2023-04-10T04:12:38.373Z,6.969
2023-04-10T04:13:38.511Z,6.986
2023-04-10T04:14:38.404Z,6.989
2023-04-10T04:15:38.497Z,6.994
2023-04-10T04:16:38.817Z,6.974
2023-04-10T04:17:39.598Z,6.993
2023-04-10T04:18:38.441Z,6.986
2023-04-10T04:19:38.743Z,6.976
2023-04-10T04:20:38.792Z,6.971
2023-04-10T04:21:39.464Z,6.978
2023-04-10T04:22:39.640Z,6.976
2023-04-10T04:23:38.273Z,7.003
2023-04-10T04:24:39.220Z,7.019
2023-04-10T04:25:40.553Z,7.018
2023-04-10T04:26:38.809Z,7.003
2023-04-10T04:27:40.104Z,6.980
2023-04-10T04:28:39.331Z,6.971
2023-04-10T04:29:38.455Z,6.971
2023-04-10T04:30:38.767Z,6.968
2023-04-10T04:31:39.092Z,6.968
2023-04-10T04:32:38.541Z,6.946
2023-04-10T04:33:38.273Z,6.936
2023-04-10T04:34:38.148Z,6.920
2023-04-10T04:35:38.256Z,6.921
2023-04-10T04:36:38.460Z,6.951
2023-04-10T04:37:38.701Z,6.973
2023-04-10T04:38:39.551Z,6.985
2023-04-10T04:39:39.497Z,6.985
2023-04-10T04:40:38.052Z,6.980
2023-04-10T04:41:39.095Z,6.945
2023-04-10T04:42:37.861Z,6.946
2023-04-10T04:43:38.823Z,6.948
2023-04-10T04:44:39.694Z,6.949
2023-04-10T04:45:41.069Z,6.969
2023-04-10T04:46:39.322Z,6.949
2023-04-10T04:47:39.813Z,6.953
2023-04-10T04:48:38.613Z,6.980
2023-04-10T04:49:38.884Z,6.988
2023-04-10T04:50:38.923Z,6.976
2023-04-10T04:51:39.020Z,6.960
2023-04-10T04:52:38.138Z,6.931
2023-04-10T04:53:38.744Z,6.929
2023-04-10T04:54:39.201Z,6.925
2023-04-10T04:55:39.403Z,6.897
2023-04-10T04:56:38.045Z,6.885
2023-04-10T04:57:38.241Z,6.857
2023-04-10T04:58:38.207Z,6.825
2023-04-10T04:59:37.921Z,6.804
2023-04-10T05:00:40.030Z,6.791
2023-04-10T05:01:38.582Z,6.785
2023-04-10T05:02:39.019Z,6.767
2023-04-10T05:03:39.504Z,6.745
2023-04-10T05:04:39.528Z,6.751
2023-04-10T05:05:39.137Z,6.734
2023-04-10T05:06:38.733Z,6.710
2023-04-10T05:07:39.662Z,6.668
2023-04-10T05:08:39.358Z,6.652
2023-04-10T05:09:38.634Z,6.645
2023-04-10T05:10:38.992Z,6.598
2023-04-10T05:11:43.798Z,6.572
2023-04-10T05:12:39.507Z,6.556
2023-04-10T05:13:38.817Z,6.526
2023-04-10T05:14:38.569Z,6.5
2023-04-10T05:15:39.091Z,6.5
2023-04-10T05:16:38.606Z,6.474
2023-04-10T05:17:38.791Z,6.451
2023-04-10T05:18:39.578Z,6.433
2023-04-10T05:19:38.465Z,6.393
2023-04-10T05:20:39.205Z,6.420
2023-04-10T05:21:39.129Z,6.441
2023-04-10T05:22:38.409Z,6.478
2023-04-10T05:23:39.256Z,6.478
2023-04-10T05:24:39.015Z,6.446
2023-04-10T05:25:38.694Z,6.448
2023-04-10T05:26:39.655Z,6.488
2023-04-10T05:27:39.875Z,6.484
2023-04-10T05:28:40.034Z,6.5
2023-04-10T05:29:39.490Z,6.514
2023-04-10T05:30:40.064Z,6.526
2023-04-10T05:31:53.434Z,6.519
2023-04-10T05:32:38.457Z,6.513
2023-04-10T05:33:39.020Z,6.481
2023-04-10T05:34:38.640Z,6.485
2023-04-10T05:35:39.394Z,6.493
2023-04-10T05:36:39.320Z,6.521
2023-04-10T05:37:38.817Z,6.534
2023-04-10T05:38:38.494Z,6.545
2023-04-10T05:39:38.985Z,6.556
2023-04-10T05:40:39.105Z,6.551
2023-04-10T05:41:38.707Z,6.578
2023-04-10T05:42:39.165Z,6.565
2023-04-10T05:43:38.976Z,6.586
2023-04-10T05:44:38.833Z,6.578
2023-04-10T05:45:40.049Z,6.579
2023-04-10T05:46:39.306Z,6.568
2023-04-10T05:47:39.401Z,6.606
2023-04-10T05:48:38.798Z,6.605
2023-04-10T05:49:39.282Z,6.594
2023-04-10T05:50:40.022Z,6.621
2023-04-10T05:51:39.285Z,6.646
2023-04-10T05:52:39.317Z,6.690
2023-04-10T05:53:38.879Z,6.721
2023-04-10T05:54:38.811Z,6.721
2023-04-10T05:55:38.694Z,6.736
2023-04-10T05:56:38.544Z,6.741
2023-04-10T05:57:38.498Z,6.760
2023-04-10T05:58:38.494Z,6.768
2023-04-10T05:59:38.731Z,6.768
2023-04-10T06:00:40.209Z,6.806
2023-04-10T06:01:38.966Z,6.813
2023-04-10T06:02:39.678Z,6.816
2023-04-10T06:03:39.804Z,6.823
2023-04-10T06:04:39.901Z,6.829
2023-04-10T06:05:40.174Z,6.848
2023-04-10T06:06:38.617Z,6.871
2023-04-10T06:07:39.894Z,6.888
2023-04-10T06:08:40.178Z,6.911
2023-04-10T06:09:39.251Z,6.905
2023-04-10T06:10:39.227Z,6.908
2023-04-10T06:11:39.217Z,6.945
2023-04-10T06:12:38.491Z,6.978
2023-04-10T06:13:38.472Z,6.973
2023-04-10T06:14:38.926Z,6.978
2023-04-10T06:15:39.682Z,6.980
2023-04-10T06:16:39.517Z,6.985
2023-04-10T06:17:38.018Z,6.986
2023-04-10T06:18:38.986Z,6.998
2023-04-10T06:19:39.021Z,7.031
2023-04-10T06:20:39.532Z,7.070
2023-04-10T06:21:39.308Z,7.105
2023-04-10T06:22:39.072Z,7.151
2023-04-10T06:23:38.468Z,7.179
2023-04-10T06:24:39.815Z,7.173
2023-04-10T06:25:39.546Z,7.197
2023-04-10T06:26:39.106Z,7.215
2023-04-10T06:27:39.263Z,7.228
2023-04-10T06:28:39.693Z,7.244
2023-04-10T06:29:38.938Z,7.263
2023-04-10T06:30:39.767Z,7.278
2023-04-10T06:31:38.937Z,7.294
2023-04-10T06:32:39.288Z,7.317
2023-04-10T06:33:41.284Z,7.342
2023-04-10T06:34:39.189Z,7.374
2023-04-10T06:35:39.232Z,7.400
2023-04-10T06:36:38.396Z,7.421
2023-04-10T06:37:38.798Z,7.441
2023-04-10T06:38:38.840Z,7.457
2023-04-10T06:39:39.506Z,7.484
2023-04-10T06:40:38.067Z,7.504
2023-04-10T06:41:37.972Z,7.538
2023-04-10T06:42:38.628Z,7.570
2023-04-10T06:43:38.776Z,7.610
2023-04-10T06:44:39.446Z,7.687
2023-04-10T06:45:38.328Z,7.737
2023-04-10T06:46:39.450Z,7.791
2023-04-10T06:47:39.159Z,7.822
2023-04-10T06:48:38.493Z,7.874
2023-04-10T06:49:39.861Z,7.897
2023-04-10T06:50:39.717Z,7.921
2023-04-10T06:51:38.978Z,7.960
2023-04-10T06:52:38.289Z,7.998
2023-04-10T06:54:10.065Z,8.051
2023-04-10T06:54:42.263Z,8.090
2023-04-10T06:55:38.323Z,8.104
2023-04-10T06:56:39.322Z,8.131
2023-04-10T06:57:38.614Z,8.159
2023-04-10T06:58:38.484Z,8.198
2023-04-10T06:59:38.310Z,8.246
2023-04-10T07:00:40.738Z,8.288
2023-04-10T07:01:40.636Z,8.321
2023-04-10T07:02:39.453Z,8.354
2023-04-10T07:03:38.782Z,8.404
2023-04-10T07:04:38.633Z,8.444
2023-04-10T07:05:42.120Z,8.494
2023-04-10T07:06:39.324Z,8.538
2023-04-10T07:07:38.445Z,8.564
2023-04-10T07:08:39.296Z,8.598
2023-04-10T07:09:38.868Z,8.645
2023-04-10T07:10:39.698Z,8.753
2023-04-10T07:11:39.191Z,8.823
2023-04-10T07:12:38.944Z,8.936
2023-04-10T07:13:39.513Z,9.031
2023-04-10T07:14:38.288Z,9.135
2023-04-10T07:15:38.325Z,9.221
2023-04-10T07:16:38.156Z,9.310
2023-04-10T07:17:38.371Z,9.359
2023-04-10T07:18:38.755Z,9.481
2023-04-10T07:19:39.700Z,9.538
2023-04-10T07:20:38.876Z,9.631
2023-04-10T07:21:39.140Z,9.680
2023-04-10T07:22:38.636Z,9.734
2023-04-10T07:23:39.014Z,9.788
2023-04-10T07:24:38.917Z,9.823
2023-04-10T07:25:39.245Z,9.881
2023-04-10T07:26:38.506Z,9.939
2023-04-10T07:27:38.684Z,10.02
2023-04-10T07:28:39.684Z,10.06
2023-04-10T07:29:38.879Z,10.11
2023-04-10T07:30:39.250Z,10.16
2023-04-10T07:31:38.917Z,10.21
2023-04-10T07:32:39.461Z,10.24
2023-04-10T07:33:39.224Z,10.24
2023-04-10T07:34:38.595Z,10.26
2023-04-10T07:35:38.787Z,10.29
2023-04-10T07:36:44.994Z,10.37
2023-04-10T07:37:38.999Z,10.44
2023-04-10T07:38:38.664Z,10.52
2023-04-10T07:39:39.186Z,10.62
2023-04-10T07:40:38.838Z,10.65
2023-04-10T07:41:39.512Z,10.67
2023-04-10T07:42:39.545Z,10.69
2023-04-10T07:43:38.725Z,10.80
2023-04-10T07:44:39.152Z,10.85
2023-04-10T07:45:39.555Z,10.86
2023-04-10T07:46:39.369Z,10.91
2023-04-10T07:47:39.718Z,10.96
2023-04-10T07:48:39.160Z,11.01
2023-04-10T07:49:38.596Z,11.00
2023-04-10T07:50:39.709Z,10.98
2023-04-10T07:51:39.092Z,11.01
2023-04-10T07:52:38.541Z,11.07
2023-04-10T07:53:38.641Z,11.11
2023-04-10T07:54:38.242Z,11.14
2023-04-10T07:55:38.347Z,11.22
2023-04-10T07:56:37.969Z,11.27
2023-04-10T07:57:40.091Z,11.28
2023-04-10T07:58:38.364Z,11.33
2023-04-10T07:59:39.058Z,11.41
2023-04-10T08:00:53.347Z,11.48
2023-04-10T08:01:38.635Z,11.56
2023-04-10T08:02:39.782Z,11.64
2023-04-10T08:03:39.778Z,11.69
2023-04-10T08:04:39.739Z,11.72
2023-04-10T08:05:39.446Z,11.79
2023-04-10T08:06:43.209Z,11.80
2023-04-10T08:07:39.227Z,11.82
2023-04-10T08:08:38.117Z,11.85
2023-04-10T08:09:38.862Z,11.87
2023-04-10T08:10:39.741Z,11.89
2023-04-10T08:11:39.030Z,11.90
2023-04-10T08:12:38.455Z,11.93
2023-04-10T08:13:38.788Z,11.98
2023-04-10T08:14:39.527Z,12.02
2023-04-10T08:15:38.639Z,12.21
2023-04-10T08:16:38.105Z,12.31
2023-04-10T08:17:37.796Z,12.34
2023-04-10T08:18:39.624Z,12.41
2023-04-10T08:19:39.298Z,12.46
2023-04-10T08:20:38.436Z,12.47
2023-04-10T08:21:39.757Z,12.49
2023-04-10T08:22:46.915Z,12.51
2023-04-10T08:23:39.076Z,12.54
2023-04-10T08:24:39.442Z,12.52
2023-04-10T08:25:38.515Z,12.56
2023-04-10T08:26:38.520Z,12.65
2023-04-10T08:27:39.470Z,12.68
2023-04-10T08:28:38.804Z,12.76
2023-04-10T08:29:38.692Z,12.77
2023-04-10T08:30:39.510Z,12.77
2023-04-10T08:31:38.994Z,12.77
2023-04-10T08:32:38.985Z,12.80
2023-04-10T08:33:38.127Z,12.83
2023-04-10T08:34:39.177Z,12.80
2023-04-10T08:35:39.438Z,12.78
2023-04-10T08:36:39.083Z,12.76
2023-04-10T08:37:39.000Z,12.75
2023-04-10T08:38:38.499Z,12.77
2023-04-10T08:39:39.472Z,12.79
2023-04-10T08:40:39.864Z,12.81
2023-04-10T08:41:39.588Z,12.89
2023-04-10T08:42:39.750Z,12.92
2023-04-10T08:43:40.038Z,12.90
2023-04-10T08:44:38.992Z,12.94
2023-04-10T08:45:39.507Z,12.98
2023-04-10T08:46:58.517Z,12.97
2023-04-10T08:47:38.785Z,13.02
2023-04-10T08:48:39.710Z,13.05
2023-04-10T08:49:38.068Z,13.07
2023-04-10T08:50:38.735Z,13.11
2023-04-10T08:51:41.618Z,13.15
2023-04-10T08:52:38.851Z,13.17
2023-04-10T08:53:39.778Z,13.17
2023-04-10T08:54:39.506Z,13.15
2023-04-10T08:55:39.362Z,13.13
2023-04-10T08:56:38.389Z,13.11
2023-04-10T08:57:39.039Z,13.11
2023-04-10T08:58:39.239Z,13.19
2023-04-10T08:59:37.539Z,13.23
2023-04-10T09:00:39.364Z,13.26
2023-04-10T09:01:39.072Z,13.29
2023-04-10T09:02:40.044Z,13.31
2023-04-10T09:03:39.884Z,13.33
2023-04-10T09:04:38.394Z,13.35
2023-04-10T09:05:38.132Z,13.38
2023-04-10T09:06:38.154Z,13.39
2023-04-10T09:07:37.935Z,13.38
2023-04-10T09:08:38.701Z,13.37
2023-04-10T09:09:38.658Z,13.36
2023-04-10T09:10:38.463Z,13.33
2023-04-10T09:11:38.267Z,13.34
2023-04-10T09:12:38.013Z,13.38
2023-04-10T09:13:37.897Z,13.39
2023-04-10T09:14:38.906Z,13.41
2023-04-10T09:15:38.825Z,13.45
2023-04-10T09:16:38.681Z,13.48
2023-04-10T09:17:39.012Z,13.51
2023-04-10T09:18:39.288Z,13.49
2023-04-10T09:19:37.690Z,13.44
2023-04-10T09:20:39.285Z,13.47
2023-04-10T09:21:37.933Z,13.53
2023-04-10T09:22:38.397Z,13.58
2023-04-10T09:23:37.577Z,13.57
2023-04-10T09:24:38.338Z,13.63
2023-04-10T09:25:38.483Z,13.69
2023-04-10T09:26:39.191Z,13.71
2023-04-10T09:27:39.081Z,13.76
2023-04-10T09:28:38.126Z,13.81
2023-04-10T09:29:38.251Z,13.82
2023-04-10T09:30:38.191Z,13.85
2023-04-10T09:31:38.225Z,13.89
2023-04-10T09:32:38.114Z,13.94
2023-04-10T09:33:38.115Z,13.93
2023-04-10T09:34:38.277Z,13.94
2023-04-10T09:35:38.194Z,13.98
2023-04-10T09:36:38.551Z,13.99
2023-04-10T09:37:39.112Z,14.01
2023-04-10T09:38:38.593Z,14.09
2023-04-10T09:39:37.801Z,14.18
2023-04-10T09:40:38.821Z,14.22
2023-04-10T09:41:39.177Z,14.21
2023-04-10T09:42:38.154Z,14.18
2023-04-10T09:43:38.616Z,14.17
2023-04-10T09:44:39.138Z,14.21
2023-04-10T09:45:38.555Z,14.21
2023-04-10T09:46:38.644Z,14.24
2023-04-10T09:47:38.667Z,14.35
2023-04-10T09:48:38.669Z,14.32
2023-04-10T09:49:38.725Z,14.31
2023-04-10T09:50:40.245Z,14.38
2023-04-10T09:51:38.667Z,14.36
2023-04-10T09:52:38.348Z,14.37
2023-04-10T09:53:38.639Z,14.42
2023-04-10T09:54:38.470Z,14.51
2023-04-10T09:55:38.381Z,14.50
2023-04-10T09:56:38.165Z,14.55
2023-04-10T09:57:37.692Z,14.60
2023-04-10T09:58:38.427Z,14.63
2023-04-10T09:59:38.809Z,14.67
2023-04-10T10:00:39.633Z,14.77
2023-04-10T10:01:43.939Z,14.86
2023-04-10T10:02:39.010Z,14.97
2023-04-10T10:03:44.294Z,15.04
2023-04-10T10:04:38.543Z,15.09
2023-04-10T10:05:39.003Z,15.12
2023-04-10T10:06:38.281Z,15.13
2023-04-10T10:07:38.371Z,15.18
2023-04-10T10:08:38.925Z,15.26
2023-04-10T10:09:47.164Z,15.30
2023-04-10T10:10:38.764Z,15.27
2023-04-10T10:11:38.441Z,15.32
2023-04-10T10:12:38.712Z,15.38
2023-04-10T10:13:38.487Z,15.43
2023-04-10T10:14:39.396Z,15.49
2023-04-10T10:15:38.695Z,15.52
2023-04-10T10:16:39.341Z,15.61
2023-04-10T10:17:37.843Z,15.66
2023-04-10T10:18:39.204Z,15.64
2023-04-10T10:19:37.928Z,15.63
2023-04-10T10:20:39.077Z,15.60
2023-04-10T10:21:38.761Z,15.59
2023-04-10T10:22:38.858Z,15.64
2023-04-10T10:23:52.978Z,15.72
2023-04-10T10:24:38.826Z,15.74
2023-04-10T10:25:38.952Z,15.77
2023-04-10T10:26:38.996Z,15.82
2023-04-10T10:27:38.451Z,15.85
2023-04-10T10:28:38.651Z,15.88
2023-04-10T10:29:38.524Z,15.90
2023-04-10T10:30:45.306Z,15.90
2023-04-10T10:31:38.318Z,15.85
2023-04-10T10:32:38.395Z,15.85
2023-04-10T10:33:38.681Z,15.84
2023-04-10T10:34:39.595Z,15.90
2023-04-10T10:35:58.542Z,15.84
2023-04-10T10:36:38.252Z,15.85
2023-04-10T10:37:57.243Z,15.92
2023-04-10T10:38:38.692Z,15.97
2023-04-10T10:39:44.007Z,16.05
2023-04-10T10:40:38.600Z,16.16
2023-04-10T10:41:38.182Z,16.18
2023-04-10T10:42:38.050Z,16.18
2023-04-10T10:43:45.836Z,16.22
2023-04-10T10:44:38.954Z,16.21
2023-04-10T10:45:38.788Z,16.20
2023-04-10T10:46:38.874Z,16.18
2023-04-10T10:47:38.809Z,16.22
2023-04-10T10:48:38.603Z,16.27
2023-04-10T10:49:38.491Z,16.34
2023-04-10T10:50:40.140Z,16.37
2023-04-10T10:51:38.309Z,16.40
2023-04-10T10:52:37.925Z,16.45
2023-04-10T10:53:38.781Z,16.48
2023-04-10T10:54:47.198Z,16.45
2023-04-10T10:55:39.231Z,16.47
2023-04-10T10:56:37.470Z,16.49
2023-04-10T10:57:38.044Z,16.56
2023-04-10T10:58:38.346Z,16.50
2023-04-10T10:59:38.219Z,16.57
2023-04-10T11:00:39.083Z,16.56
2023-04-10T11:01:39.097Z,16.47
2023-04-10T11:02:38.861Z,16.42
2023-04-10T11:03:38.626Z,16.41
2023-04-10T11:04:39.178Z,16.40
2023-04-10T11:05:57.654Z,16.37
2023-04-10T11:06:38.264Z,16.37
2023-04-10T11:07:37.892Z,16.36
2023-04-10T11:08:38.477Z,16.36
2023-04-10T11:09:38.464Z,16.38
2023-04-10T11:10:38.366Z,16.41
2023-04-10T11:11:38.622Z,16.47
2023-04-10T11:12:39.684Z,16.48
2023-04-10T11:13:38.653Z,16.46
2023-04-10T11:14:38.266Z,16.44
2023-04-10T11:15:38.724Z,16.43
2023-04-10T11:16:39.253Z,16.43
2023-04-10T11:17:38.502Z,16.45
2023-04-10T11:18:38.241Z,16.42
2023-04-10T11:19:38.990Z,16.42
2023-04-10T11:20:37.972Z,16.45
2023-04-10T11:21:38.502Z,16.45
2023-04-10T11:22:38.781Z,16.44
2023-04-10T11:23:39.588Z,16.45
2023-04-10T11:24:38.560Z,16.45
2023-04-10T11:25:38.110Z,16.44
2023-04-10T11:26:38.088Z,16.38
2023-04-10T11:27:38.219Z,16.37
2023-04-10T11:28:38.523Z,16.35
2023-04-10T11:29:39.082Z,16.40
2023-04-10T11:30:38.173Z,16.40
2023-04-10T11:31:38.253Z,16.43
2023-04-10T11:32:38.381Z,16.44
2023-04-10T11:33:38.486Z,16.47
2023-04-10T11:34:38.961Z,16.45
2023-04-10T11:35:39.354Z,16.42
2023-04-10T11:36:38.346Z,16.36
2023-04-10T11:37:38.122Z,16.35
2023-04-10T11:38:38.662Z,16.43
2023-04-10T11:39:39.253Z,16.47
2023-04-10T11:40:37.768Z,16.46
2023-04-10T11:41:38.661Z,16.44
2023-04-10T11:42:38.328Z,16.42
2023-04-10T11:43:38.036Z,16.43
2023-04-10T11:44:38.031Z,16.47
2023-04-10T11:45:38.218Z,16.48
2023-04-10T11:46:38.881Z,16.55
2023-04-10T11:47:38.840Z,16.58
2023-04-10T11:48:39.115Z,16.59
2023-04-10T11:49:38.028Z,16.56
2023-04-10T11:50:38.699Z,16.57
2023-04-10T11:51:38.846Z,16.55
2023-04-10T11:52:38.616Z,16.58
2023-04-10T11:53:37.940Z,16.60
2023-04-10T11:54:38.560Z,16.59
2023-04-10T11:55:38.424Z,16.57
2023-04-10T11:56:38.062Z,16.60
2023-04-10T11:57:38.337Z,16.60
2023-04-10T11:58:37.578Z,16.61
2023-04-10T12:00:38.943Z,16.69
2023-04-10T12:01:39.829Z,16.67
2023-04-10T12:02:38.776Z,16.69
2023-04-10T12:03:39.707Z,16.69
2023-04-10T12:04:39.635Z,16.69
2023-04-10T12:05:39.179Z,16.67
2023-04-10T12:06:38.356Z,16.69
2023-04-10T12:07:38.714Z,16.71
2023-04-10T12:08:38.719Z,16.78
2023-04-10T12:09:38.233Z,16.86
2023-04-10T12:10:38.327Z,16.87
2023-04-10T12:11:38.100Z,16.89
2023-04-10T12:12:38.195Z,16.88
2023-04-10T12:13:37.954Z,16.89
2023-04-10T12:14:38.949Z,16.90
2023-04-10T12:15:37.919Z,16.88
2023-04-10T12:16:38.453Z,16.91
2023-04-10T12:17:38.305Z,16.96
2023-04-10T12:18:43.227Z,17.00
2023-04-10T12:19:38.312Z,17.01
2023-04-10T12:20:38.168Z,17.02
2023-04-10T12:21:37.929Z,16.99
2023-04-10T12:22:38.495Z,17.01
2023-04-10T12:23:38.622Z,17.00
2023-04-10T12:24:38.195Z,17.00
2023-04-10T12:25:38.540Z,17.02
2023-04-10T12:26:38.614Z,17.03
2023-04-10T12:27:38.270Z,17.02
2023-04-10T12:28:37.778Z,17.00
2023-04-10T12:29:38.929Z,16.98
2023-04-10T12:30:38.407Z,17
2023-04-10T12:31:37.866Z,17.02
2023-04-10T12:32:38.101Z,17.02
2023-04-10T12:33:38.313Z,16.99
2023-04-10T12:34:38.281Z,16.98
2023-04-10T12:35:38.338Z,17.01
2023-04-10T12:36:37.649Z,16.99
2023-04-10T12:37:38.584Z,17.02
2023-04-10T12:38:37.974Z,17.03
2023-04-10T12:39:38.580Z,17.04
2023-04-10T12:40:38.928Z,17.06
2023-04-10T12:41:39.366Z,17.06
2023-04-10T12:42:38.272Z,17.03
2023-04-10T12:43:38.353Z,17.04
2023-04-10T12:44:38.039Z,17.10
2023-04-10T12:45:38.487Z,17.09
2023-04-10T12:46:38.520Z,17.13
2023-04-10T12:47:38.632Z,17.20
2023-04-10T12:48:38.657Z,17.26
2023-04-10T12:49:37.918Z,17.27
2023-04-10T12:50:38.631Z,17.35
2023-04-10T12:51:38.678Z,17.33
2023-04-10T12:52:38.356Z,17.29
2023-04-10T12:53:38.057Z,17.28
2023-04-10T12:54:38.038Z,17.30